Home > Products > Valid Products > TAF

000
FTUS43 KTOP 021436 AAC
TAFTOP
TAF AMD
KTOP 021436Z 0215/0312 20005KT P6SM BKN080
      TEMPO 0215/0216 -SHRA BKN080
     FM021700 18012G20KT P6SM SCT100
     FM030000 16006KT P6SM FEW150=



000
FTUS43 KTOP 021317 AAB
TAFTOP
TAF AMD
KTOP 021317Z 0213/0312 19013G18KT 4SM -TSRA BKN090CB
      TEMPO 0214/0215 2SM TSRA BKN050CB
     FM021700 18012G20KT P6SM SCT100
     FM030000 16006KT P6SM FEW150=



000
FTUS43 KTOP 021317 AAB
TAFTOP
TAF AMD
KTOP 021317Z 0213/0312 19013G18KT 4SM -TSRA BKN090CB
      TEMPO 0214/0215 2SM TSRA BKN050CB
     FM021700 18012G20KT P6SM SCT100
     FM030000 16006KT P6SM FEW150=



000
FTUS43 KTOP 021231 AAA
TAFTOP
TAF AMD
KTOP 021231Z 0213/0312 19009KT 5SM -TSRA BR SCT060 BKN080CB
     FM021320 19011KT P6SM VCTS BKN090CB
     FM021700 18012G20KT P6SM SCT100
     FM030000 16006KT P6SM FEW150=



000
FTUS43 KTOP 021231 AAA
TAFTOP
TAF AMD
KTOP 021231Z 0213/0312 19009KT 5SM -TSRA BR SCT060 BKN080CB
     FM021320 19011KT P6SM VCTS BKN090CB
     FM021700 18012G20KT P6SM SCT100
     FM030000 16006KT P6SM FEW150=



000
FTUS43 KTOP 021131
TAFTOP
TAF
KTOP 021131Z 0212/0312 19009KT P6SM -SHRA VCTS BKN090CB
     FM021700 18012G20KT P6SM SCT100
     FM030000 16006KT P6SM FEW150=



000
FTUS43 KTOP 021131
TAFTOP
TAF
KTOP 021131Z 0212/0312 19009KT P6SM -SHRA VCTS BKN090CB
     FM021700 18012G20KT P6SM SCT100
     FM030000 16006KT P6SM FEW150=



000
FTUS43 KTOP 021039 AAB
TAFTOP
TAF AMD
KTOP 021039Z 0211/0306 17006KT P6SM -SHRA VCTS BKN100CB
     FM021500 18011KT P6SM SCT100
     FM021800 18012G20KT P6SM FEW120
     FM030000 17006KT P6SM FEW120=



000
FTUS43 KTOP 021039 AAB
TAFTOP
TAF AMD
KTOP 021039Z 0211/0306 17006KT P6SM -SHRA VCTS BKN100CB
     FM021500 18011KT P6SM SCT100
     FM021800 18012G20KT P6SM FEW120
     FM030000 17006KT P6SM FEW120=



000
FTUS43 KTOP 020520
TAFTOP
TAF
KTOP 020520Z 0206/0306 17007KT P6SM SCT100
     FM020800 18006KT P6SM -RA BKN090
     FM021500 18011KT P6SM SCT100
     FM021800 18012G20KT P6SM FEW120
     FM030000 17006KT P6SM FEW120=



000
FTUS43 KTOP 020520
TAFTOP
TAF
KTOP 020520Z 0206/0306 17007KT P6SM SCT100
     FM020800 18006KT P6SM -RA BKN090
     FM021500 18011KT P6SM SCT100
     FM021800 18012G20KT P6SM FEW120
     FM030000 17006KT P6SM FEW120=



000
FTUS43 KTOP 012337
TAFTOP
TAF
KTOP 012337Z 0200/0224 17008KT P6SM SCT100
     FM021800 18012G18KT P6SM FEW120=



000
FTUS43 KTOP 012201 AAA
TAFTOP
TAF AMD
KTOP 012201Z 0122/0218 18010G17KT P6SM FEW200
     FM020000 16007KT P6SM SCT090=



000
FTUS43 KTOP 012201 AAA
TAFTOP
TAF AMD
KTOP 012201Z 0122/0218 18010G17KT P6SM FEW200
     FM020000 16007KT P6SM SCT090=



000
FTUS43 KTOP 011720
TAFTOP
TAF
KTOP 011720Z 0118/0218 18012G20KT P6SM FEW200
     FM020000 16007KT P6SM SCT090=



000
FTUS43 KTOP 011720
TAFTOP
TAF
KTOP 011720Z 0118/0218 18012G20KT P6SM FEW200
     FM020000 16007KT P6SM SCT090=



000
FTUS43 KTOP 011128
TAFTOP
TAF
KTOP 011128Z 0112/0212 18008KT P6SM SKC
     FM011700 18012G20KT P6SM FEW050
     FM020000 16007KT P6SM SCT200=



000
FTUS43 KTOP 011128
TAFTOP
TAF
KTOP 011128Z 0112/0212 18008KT P6SM SKC
     FM011700 18012G20KT P6SM FEW050
     FM020000 16007KT P6SM SCT200=



000
FTUS43 KTOP 010520
TAFTOP
TAF
KTOP 010520Z 0106/0206 18006KT P6SM SKC
     FM011700 18012G20KT P6SM FEW050
     FM020000 17008KT P6SM SCT200=



000
FTUS43 KTOP 010520
TAFTOP
TAF
KTOP 010520Z 0106/0206 18006KT P6SM SKC
     FM011700 18012G20KT P6SM FEW050
     FM020000 17008KT P6SM SCT200=



000
FTUS43 KTOP 312320
TAFTOP
TAF
KTOP 312320Z 0100/0124 17006KT P6SM SKC
     FM011700 18012G20KT P6SM FEW080=



000
FTUS43 KTOP 311720
TAFTOP
TAF
KTOP 311720Z 3118/0118 17010KT P6SM SCT035
     FM010000 18008KT P6SM FEW250=



000
FTUS43 KTOP 311720
TAFTOP
TAF
KTOP 311720Z 3118/0118 17010KT P6SM SCT035
     FM010000 18008KT P6SM FEW250=



000
FTUS43 KTOP 311136
TAFTOP
TAF
KTOP 311136Z 3112/0112 00000KT 2SM BR SCT015
      TEMPO 3112/3114 1/4SM FG VV003
     FM311500 17009KT P6SM FEW030=



000
FTUS43 KTOP 311136
TAFTOP
TAF
KTOP 311136Z 3112/0112 00000KT 2SM BR SCT015
      TEMPO 3112/3114 1/4SM FG VV003
     FM311500 17009KT P6SM FEW030=



000
FTUS43 KTOP 311102 AAC
TAFTOP
TAF AMD
KTOP 311102Z 3111/0106 00000KT 2SM BR SCT015
      TEMPO 3111/3113 1/4SM FG VV003
     FM311500 16007KT P6SM FEW030=



000
FTUS43 KTOP 311102 AAC
TAFTOP
TAF AMD
KTOP 311102Z 3111/0106 00000KT 2SM BR SCT015
      TEMPO 3111/3113 1/4SM FG VV003
     FM311500 16007KT P6SM FEW030=



000
FTUS43 KTOP 310955 AAB
TAFTOP
TAF AMD
KTOP 310955Z 3110/0106 00000KT 3SM BR FEW030
      TEMPO 3110/3113 1SM MIFG BR SCT004
     FM311500 16007KT P6SM FEW030=



000
FTUS43 KTOP 310758 AAA
TAFTOP
TAF AMD
KTOP 310758Z 3108/0106 00000KT 6SM BR SCT030
      TEMPO 3109/3113 3SM MIFG BR SCT004
     FM311500 16007KT P6SM FEW030=



000
FTUS43 KTOP 310520
TAFTOP
TAF
KTOP 310520Z 3106/0106 00000KT 5SM BR MIFG SCT050
     FM310900 13002KT 3SM BR MIFG FEW025
      TEMPO 3111/3113 1SM BR SCT006
     FM311500 16007KT P6SM FEW030=



000
FTUS43 KTOP 310520
TAFTOP
TAF
KTOP 310520Z 3106/0106 00000KT 5SM BR MIFG SCT050
     FM310900 13002KT 3SM BR MIFG FEW025
      TEMPO 3111/3113 1SM BR SCT006
     FM311500 16007KT P6SM FEW030=



000
FTUS43 KTOP 310422 AAA
TAFTOP
TAF AMD
KTOP 310422Z 3104/3124 00000KT 5SM BR SCT050
     FM310900 13002KT 3SM BR SCT002
      TEMPO 3111/3113 1/2SM FG BKN002
     FM311500 16008KT P6SM SCT025=



000
FTUS43 KTOP 302320
TAFTOP
TAF
KTOP 302320Z 3100/3124 11004KT P6SM FEW050
     FM310900 13002KT 3SM BR BKN010
     FM311500 15008KT P6SM SCT025=



000
FTUS43 KTOP 302320
TAFTOP
TAF
KTOP 302320Z 3100/3124 11004KT P6SM FEW050
     FM310900 13002KT 3SM BR BKN010
     FM311500 15008KT P6SM SCT025=



000
FTUS43 KTOP 302003 AAA
TAFTOP
TAF AMD
KTOP 302003Z 3020/3118 10005KT P6SM SCT025
     FM310900 10003KT 3SM BR SCT020
     FM311400 15006KT P6SM SCT025=



000
FTUS43 KTOP 301732
TAFTOP
TAF
KTOP 301732Z 3018/3118 08004KT P6SM BKN015
     FM302100 10005KT P6SM SCT025
     FM310900 10003KT 3SM BR SCT020
     FM311400 15006KT P6SM SCT025=



000
FTUS43 KTOP 301732
TAFTOP
TAF
KTOP 301732Z 3018/3118 08004KT P6SM BKN015
     FM302100 10005KT P6SM SCT025
     FM310900 10003KT 3SM BR SCT020
     FM311400 15006KT P6SM SCT025=



    US Dept of Commerce
    National Oceanic and Atmospheric Administration
    National Weather Service
    1325 East West Highway
    Silver Spring, MD 20910
    Page Author: NWS Internet Services Team
Disclaimer
Information Quality
Credits
Glossary
Privacy Policy
Freedom of Information Act (FOIA)
About Us
Career Opportunities